Time;durP1;ratioP1;P1;durP2;ratioP2;P2;SDS_P1;SDS_P2;PMS_P1;PMS_P2;Temp;Humidity;BMP_temperature;BMP_pressure;BME280_temperature;BME280_humidity;BME280_pressure;Samples;Min_cycle;Max_cycle;Signal;HPM_P1;HPM_P2
2024/03/02 00:01:38;;;;;;;36.80;21.40;;;;;;;2.16;100.00;100570.25;108847;1254;67337;-58
2024/03/02 00:04:06;;;;;;;40.00;21.90;;;;;;;2.15;100.00;100573.97;105993;1263;71432;-58
2024/03/02 00:06:34;;;;;;;36.90;19.50;;;;;;;2.15;100.00;100570.96;108933;1256;58676;-58
2024/03/02 00:09:01;;;;;;;33.80;21.00;;;;;;;2.16;100.00;100569.90;108799;1256;59619;-58
2024/03/02 00:11:28;;;;;;;33.60;20.30;;;;;;;2.16;100.00;100570.79;108821;1258;73965;-58
2024/03/02 00:13:56;;;;;;;36.60;20.80;;;;;;;2.17;100.00;100573.80;108815;1254;67772;-58
2024/03/02 00:16:24;;;;;;;39.40;22.10;;;;;;;2.17;100.00;100576.64;108901;1256;72742;-58
2024/03/02 00:18:51;;;;;;;38.50;23.10;;;;;;;2.16;100.00;100575.92;108764;1258;59282;-57
2024/03/02 00:21:22;;;;;;;38.10;21.50;;;;;;;2.16;100.00;100573.63;108238;1258;60531;-58
2024/03/02 00:23:51;;;;;;;37.80;20.90;;;;;;;2.14;100.00;100574.16;105749;1257;73853;-58
2024/03/02 00:26:19;;;;;;;44.70;23.60;;;;;;;2.12;100.00;100573.10;106083;1255;66775;-58
2024/03/02 00:28:47;;;;;;;45.30;23.60;;;;;;;2.08;100.00;100567.27;105735;1262;73181;-57
2024/03/02 00:31:14;;;;;;;37.00;20.90;;;;;;;2.04;100.00;100562.13;105874;1276;60231;-58
2024/03/02 00:33:48;;;;;;;35.90;22.60;;;;;;;2.00;100.00;100566.55;106532;1257;60025;-58
2024/03/02 00:36:25;;;;;;;37.00;22.70;;;;;;;1.97;100.00;100559.64;106607;1253;73532;-58
2024/03/02 00:38:54;;;;;;;44.60;22.20;;;;;;;1.94;100.00;100552.95;107045;1253;65824;-58
2024/03/02 00:41:29;;;;;;;32.70;19.10;;;;;;;1.89;100.00;100546.20;106266;1259;71486;-58
2024/03/02 00:44:00;;;;;;;37.10;19.40;;;;;;;1.87;100.00;100550.11;105940;1260;61630;-58
2024/03/02 00:46:30;;;;;;;31.10;18.70;;;;;;;1.85;100.00;100552.23;106307;1253;61029;-58
2024/03/02 00:49:00;;;;;;;36.90;19.00;;;;;;;1.85;100.00;100550.64;106296;1254;72358;-58
2024/03/02 00:51:29;;;;;;;33.70;19.30;;;;;;;1.85;100.00;100546.39;106284;1256;65730;-57
2024/03/02 00:54:03;;;;;;;35.80;20.20;;;;;;;1.84;100.00;100546.74;105980;1260;70595;-58
2024/03/02 00:56:32;;;;;;;31.50;19.40;;;;;;;1.82;100.00;100540.36;106269;1256;60436;-57
2024/03/02 00:58:59;;;;;;;32.20;18.80;;;;;;;1.77;100.00;100536.84;105832;1256;60447;-58
2024/03/02 01:01:27;;;;;;;29.60;18.80;;;;;;;1.74;100.00;100538.96;106410;1258;72840;-58
2024/03/02 01:03:54;;;;;;;34.30;20.60;;;;;;;1.73;100.00;100541.08;105876;1258;266435;-58
2024/03/02 01:08:47;;;;;;;39.00;21.30;;;;;;;1.71;100.00;100551.52;102527;1294;602827;-57
2024/03/02 01:11:13;;;;;;;38.90;22.40;;;;;;;1.69;100.00;100546.94;105791;1266;59129;-57
2024/03/02 01:13:40;;;;;;;33.00;20.10;;;;;;;1.68;100.00;100543.57;105506;1266;60524;-58
2024/03/02 01:16:06;;;;;;;35.40;20.80;;;;;;;1.66;100.00;100540.91;105289;1266;60153;-59
2024/03/02 01:18:33;;;;;;;32.70;20.70;;;;;;;1.64;100.00;100539.48;105275;1264;70502;-59
2024/03/02 01:21:00;;;;;;;35.00;21.40;;;;;;;1.61;100.00;100538.08;105016;1268;347288;-58
2024/03/02 01:23:26;;;;;;;35.10;20.30;;;;;;;1.60;100.00;100541.27;105851;1263;61012;-58
2024/03/02 01:25:53;;;;;;;36.00;19.60;;;;;;;1.57;100.00;100534.01;105424;1279;59625;-59
2024/03/02 01:28:20;;;;;;;29.40;17.60;;;;;;;1.55;100.00;100534.35;105606;1265;72536;-58
2024/03/02 01:30:47;;;;;;;29.20;18.70;;;;;;;1.54;100.00;100535.94;105541;1263;67181;-59
2024/03/02 01:33:14;;;;;;;34.80;18.40;;;;;;;1.55;100.00;100533.64;105713;1263;71866;-59
2024/03/02 01:35:41;;;;;;;31.70;18.40;;;;;;;1.56;100.00;100533.29;105515;1263;61105;-59
2024/03/02 01:38:07;;;;;;;26.40;17.60;;;;;;;1.56;100.00;100534.70;105398;1268;59918;-59
2024/03/02 01:40:34;;;;;;;32.70;19.00;;;;;;;1.57;100.00;100527.81;105547;1262;59616;-59
2024/03/02 01:43:02;;;;;;;35.10;19.00;;;;;;;1.58;100.00;100524.10;105769;1263;67052;-59
2024/03/02 01:45:29;;;;;;;35.10;20.20;;;;;;;1.57;100.00;100522.50;106221;1261;71559;-58
2024/03/02 01:47:56;;;;;;;34.80;20.20;;;;;;;1.57;100.00;100521.08;107015;1262;59648;-59
2024/03/02 01:50:26;;;;;;;34.00;21.60;;;;;;;1.56;100.00;100527.45;105505;1268;60509;-58
2024/03/02 01:52:53;;;;;;;30.70;20.30;;;;;;;1.55;100.00;100532.23;105738;1262;73112;-60
2024/03/02 01:55:20;;;;;;;34.10;18.70;;;;;;;1.52;100.00;100526.41;106363;1262;67305;-59
2024/03/02 01:57:48;;;;;;;31.40;20.20;;;;;;;1.48;100.00;100523.20;105353;1268;71707;-58
2024/03/02 02:00:15;;;;;;;31.20;19.40;;;;;;;1.45;100.00;100522.67;105817;1266;60012;-58
2024/03/02 02:02:42;;;;;;;32.50;19.50;;;;;;;1.43;100.00;100526.40;105952;1263;60390;-57
2024/03/02 02:05:09;;;;;;;40.60;21.20;;;;;;;1.40;100.00;100527.80;105396;1266;71834;-58
2024/03/02 02:07:35;;;;;;;29.20;19.50;;;;;;;1.38;100.00;100525.85;105339;1264;67503;-57
2024/03/02 02:10:02;;;;;;;31.80;17.70;;;;;;;1.36;100.00;100530.09;105324;1268;59749;-57
2024/03/02 02:12:28;;;;;;;32.00;18.20;;;;;;;1.34;100.00;100524.98;105372;1265;62098;-58
2024/03/02 02:14:55;;;;;;;31.30;17.30;;;;;;;1.33;100.00;100526.20;106171;1257;59766;-58
2024/03/02 02:17:21;;;;;;;30.00;18.60;;;;;;;1.33;100.00;100525.85;106144;1253;60601;-57
2024/03/02 02:19:48;;;;;;;36.50;16.50;;;;;;;1.33;100.00;100527.63;106168;1259;60442;-58
2024/03/02 02:22:14;;;;;;;31.50;18.30;;;;;;;1.34;100.00;100524.09;106163;1255;59740;-58
2024/03/02 02:24:41;;;;;;;28.10;17.60;;;;;;;1.35;100.00;100520.90;106230;1253;59753;-58
2024/03/02 02:27:08;;;;;;;24.00;15.50;;;;;;;1.36;100.00;100521.95;107143;1254;60474;-58
2024/03/02 02:29:35;;;;;;;31.20;18.30;;;;;;;1.36;100.00;100521.07;106188;1258;72879;-56
2024/03/02 02:32:02;;;;;;;28.00;18.30;;;;;;;1.36;100.00;100515.95;106186;1253;67165;-56
2024/03/02 02:34:28;;;;;;;32.70;20.10;;;;;;;1.35;100.00;100514.72;106805;1253;72797;-56
2024/03/02 02:36:55;;;;;;;35.40;19.60;;;;;;;1.35;100.00;100518.27;105993;1267;61330;-58
2024/03/02 02:39:24;;;;;;;39.90;21.50;;;;;;;1.33;100.00;100515.41;106228;1253;60562;-56
2024/03/02 02:41:51;;;;;;;29.90;19.80;;;;;;;1.30;100.00;100513.98;109161;1253;71909;-55
2024/03/02 02:44:18;;;;;;;35.00;20.10;;;;;;;1.26;100.00;100512.75;109162;1253;67067;-59
2024/03/02 02:46:44;;;;;;;37.60;20.00;;;;;;;1.20;100.00;100516.46;107890;1256;71437;-56
2024/03/02 02:49:11;;;;;;;34.90;19.40;;;;;;;1.14;100.00;100516.09;106084;1253;60395;-57
2024/03/02 02:51:38;;;;;;;32.00;18.90;;;;;;;1.10;100.00;100517.16;106072;1259;59736;-56
2024/03/02 02:54:04;;;;;;;28.40;17.00;;;;;;;1.07;100.00;100516.27;106119;1254;73436;-56
2024/03/02 02:56:31;;;;;;;35.40;19.50;;;;;;;1.05;100.00;100515.54;106036;1256;59763;-59
2024/03/02 02:58:57;;;;;;;33.90;19.00;;;;;;;1.06;100.00;100514.84;106067;1256;59614;-58
2024/03/02 03:01:24;;;;;;;28.40;16.90;;;;;;;1.07;100.00;100513.79;106090;1259;61406;-57
2024/03/02 03:03:50;;;;;;;31.00;18.80;;;;;;;1.08;100.00;100516.62;106157;1258;62538;-56
2024/03/02 03:06:17;;;;;;;31.70;18.80;;;;;;;1.11;100.00;100514.50;106381;1253;72950;-56
2024/03/02 03:08:43;;;;;;;28.60;18.80;;;;;;;1.13;100.00;100510.77;106147;1259;59756;-58
2024/03/02 03:11:10;;;;;;;34.30;20.10;;;;;;;1.13;100.00;100507.06;107258;1253;72516;-56
2024/03/02 03:13:37;;;;;;;31.60;19.80;;;;;;;1.12;100.00;100506.54;106202;1256;60541;-57
2024/03/02 03:16:04;;;;;;;34.40;20.60;;;;;;;1.10;100.00;100504.42;109199;1254;60499;-57
2024/03/02 03:18:30;;;;;;;33.40;21.70;;;;;;;1.08;100.00;100504.95;108543;1254;71676;-56
2024/03/02 03:20:57;;;;;;;34.30;20.80;;;;;;;1.04;100.00;100507.94;106162;1257;65884;-58
2024/03/02 03:23:23;;;;;;;33.30;20.50;;;;;;;0.99;100.00;100505.29;106176;1258;59680;-55
2024/03/02 03:25:50;;;;;;;36.40;21.50;;;;;;;0.92;100.00;100500.48;106375;1256;59746;-55
2024/03/02 03:28:16;;;;;;;34.00;20.80;;;;;;;0.89;100.00;100503.13;106064;1256;59683;-56
2024/03/02 03:30:43;;;;;;;38.50;20.90;;;;;;;0.85;100.00;100502.77;106145;1253;70752;-55
2024/03/02 03:33:09;;;;;;;33.10;19.00;;;;;;;0.82;100.00;100499.77;106093;1253;67126;-57
2024/03/02 03:35:36;;;;;;;33.50;19.50;;;;;;;0.81;100.00;100499.58;107159;1253;59158;-57
2024/03/02 03:38:03;;;;;;;34.20;19.50;;;;;;;0.82;100.00;100496.23;106359;1253;61105;-56
2024/03/02 03:40:29;;;;;;;33.60;19.00;;;;;;;0.83;100.00;100496.05;106129;1257;59590;-54
2024/03/02 03:42:56;;;;;;;35.20;18.60;;;;;;;0.84;100.00;100501.71;106497;1253;73404;-55
2024/03/02 03:45:25;;;;;;;35.20;19.30;;;;;;;0.84;100.00;100498.36;106269;1256;67155;-53
2024/03/02 03:47:53;;;;;;;33.00;19.30;;;;;;;0.85;100.00;100495.35;106314;1254;72930;-54
2024/03/02 03:50:20;;;;;;;35.70;19.70;;;;;;;0.86;100.00;100492.52;106355;1256;60200;-54
2024/03/02 03:52:46;;;;;;;30.30;19.30;;;;;;;0.86;100.00;100488.45;106173;1253;59601;-56
2024/03/02 03:55:13;;;;;;;36.60;21.90;;;;;;;0.84;100.00;100494.30;106137;1259;59519;-54
2024/03/02 03:57:40;;;;;;;39.70;22.50;;;;;;;0.81;100.00;100493.57;106163;1253;68454;-52
2024/03/02 04:00:10;;;;;;;41.00;21.30;;;;;;;0.76;100.00;100495.15;106102;1259;59668;-54
2024/03/02 04:02:39;;;;;;;33.90;20.40;;;;;;;0.71;100.00;100495.30;106056;1256;61174;-54
2024/03/02 04:05:08;;;;;;;33.00;19.80;;;;;;;0.66;100.00;100499.89;106202;1256;60128;-53
2024/03/02 04:07:42;;;;;;;32.90;19.40;;;;;;;0.61;100.00;100503.22;106157;1257;71653;-54
2024/03/02 04:10:10;;;;;;;35.00;20.70;;;;;;;0.57;100.00;100501.09;107050;1258;67173;-54
2024/03/02 04:12:36;;;;;;;32.40;19.60;;;;;;;0.55;100.00;100504.27;106507;1254;73209;-55
2024/03/02 04:15:05;;;;;;;34.10;19.30;;;;;;;0.55;100.00;100503.20;106022;1258;62133;-53
2024/03/02 04:17:33;;;;;;;31.10;19.70;;;;;;;0.57;100.00;100502.67;106143;1256;59901;-52
2024/03/02 04:20:00;;;;;;;32.40;19.40;;;;;;;0.58;100.00;100500.40;106225;1253;73155;-51
2024/03/02 04:22:27;;;;;;;30.80;19.10;;;;;;;0.59;100.00;100501.11;107293;1254;67266;-52
2024/03/02 04:24:54;;;;;;;34.60;19.80;;;;;;;0.60;100.00;100496.14;106537;1257;72873;-53
2024/03/02 04:27:21;;;;;;;33.50;18.30;;;;;;;0.59;100.00;100493.52;106454;1257;59670;-55
2024/03/02 04:29:48;;;;;;;35.60;19.20;;;;;;;0.59;100.00;100492.45;106238;1254;60982;-53
2024/03/02 04:32:15;;;;;;;32.00;20.50;;;;;;;0.60;100.00;100495.09;106362;1256;73236;-53
2024/03/02 04:34:42;;;;;;;31.30;19.30;;;;;;;0.59;100.00;100491.73;106231;1259;67155;-53
2024/03/02 04:37:12;;;;;;;33.50;20.40;;;;;;;0.56;100.00;100498.43;106697;1254;71266;-54
2024/03/02 04:39:38;;;;;;;34.30;20.70;;;;;;;0.53;100.00;100497.17;106233;1253;59581;-55
2024/03/02 04:42:04;;;;;;;33.90;21.10;;;;;;;0.49;100.00;100498.05;106182;1258;59488;-55
2024/03/02 04:44:31;;;;;;;33.10;20.10;;;;;;;0.45;100.00;100501.38;106114;1256;71615;-52
2024/03/02 04:46:58;;;;;;;34.00;20.30;;;;;;;0.41;100.00;100508.27;106104;1253;60634;-54
2024/03/02 04:49:24;;;;;;;30.90;19.80;;;;;;;0.37;100.00;100505.05;106655;1257;59704;-54
2024/03/02 04:51:51;;;;;;;34.40;20.10;;;;;;;0.37;100.00;100502.59;106136;1259;60921;-53
2024/03/02 04:54:18;;;;;;;28.50;18.10;;;;;;;0.38;100.00;100498.36;106101;1253;60397;-52
2024/03/02 04:56:49;;;;;;;31.10;19.10;;;;;;;0.39;100.00;100496.60;106075;1257;73339;-53
2024/03/02 04:59:17;;;;;;;32.70;19.10;;;;;;;0.41;100.00;100498.39;106245;1258;67995;-53
2024/03/02 05:01:44;;;;;;;30.10;18.30;;;;;;;0.42;100.00;100497.67;106366;1252;72879;-53
2024/03/02 05:04:11;;;;;;;29.40;18.50;;;;;;;0.44;100.00;100501.02;107032;1257;61288;-55
2024/03/02 05:06:42;;;;;;;35.80;19.00;;;;;;;0.49;100.00;100498.94;106275;1258;59565;-51
2024/03/02 05:09:08;;;;;;;29.10;19.00;;;;;;;0.53;100.00;100497.35;106346;1256;73362;-57
2024/03/02 05:14:05;;;;;;;31.60;19.50;;;;;;;0.58;100.00;100496.69;106169;1253;72574;-52
2024/03/02 05:16:35;;;;;;;29.40;19.50;;;;;;;0.60;100.00;100494.38;107103;1258;60588;-52
2024/03/02 05:19:02;;;;;;;38.00;22.10;;;;;;;0.59;100.00;100497.57;106412;1258;60518;-56
2024/03/02 05:21:28;;;;;;;35.90;21.40;;;;;;;0.58;100.00;100491.74;106167;1256;72337;-51
2024/03/02 05:23:55;;;;;;;35.80;21.70;;;;;;;0.57;100.00;100499.33;106147;1253;61085;-54
2024/03/02 05:26:22;;;;;;;31.40;20.50;;;;;;;0.56;100.00;100498.08;106198;1253;73088;-53
2024/03/02 05:28:48;;;;;;;36.10;20.20;;;;;;;0.56;100.00;100499.48;106198;1259;60554;-51
2024/03/02 05:31:15;;;;;;;34.20;19.00;;;;;;;0.59;100.00;100500.04;106107;1253;61328;-50
2024/03/02 05:33:41;;;;;;;34.80;19.60;;;;;;;0.64;100.00;100502.17;106139;1257;60374;-51
2024/03/02 05:36:08;;;;;;;33.30;20.80;;;;;;;0.74;100.00;100501.33;109132;1255;59777;-51
2024/03/02 05:38:34;;;;;;;35.10;19.70;;;;;;;0.86;100.00;100499.59;109290;1253;70267;-52
2024/03/02 05:41:01;;;;;;;32.40;19.40;;;;;;;0.98;100.00;100496.63;109105;1253;61361;-50
2024/03/02 05:43:28;;;;;;;35.90;20.70;;;;;;;1.12;100.00;100497.88;109143;1253;59429;-51
2024/03/02 05:45:55;;;;;;;34.00;19.70;;;;;;;1.28;100.00;100500.73;108481;1254;73632;-51
2024/03/02 05:48:21;;;;;;;35.10;20.20;;;;;;;1.41;100.00;100500.92;106055;1265;67266;-50
2024/03/02 05:50:48;;;;;;;30.80;18.60;;;;;;;1.51;100.00;100502.52;109019;1256;72664;-51
2024/03/02 05:53:15;;;;;;;36.30;21.40;;;;;;;1.60;100.00;100502.16;107336;1253;60529;-52
2024/03/02 05:55:42;;;;;;;33.20;21.10;;;;;;;1.67;100.00;100500.04;109150;1253;60299;-54
2024/03/02 05:58:31;;;;;;;32.20;20.10;;;;;;;1.74;100.00;100498.96;109216;1256;58599;-54
2024/03/02 06:00:57;;;;;;;27.70;19.30;;;;;;;1.81;100.00;100497.89;106643;1257;67027;-52
2024/03/02 06:03:24;;;;;;;29.90;20.80;;;;;;;1.84;100.00;100498.09;106215;1253;73100;-54
2024/03/02 06:05:50;;;;;;;36.20;21.30;;;;;;;1.86;100.00;100497.91;109212;1253;59579;-53
2024/03/02 06:08:17;;;;;;;33.70;20.80;;;;;;;1.90;100.00;100493.99;109200;1253;58321;-52
2024/03/02 06:10:43;;;;;;;37.60;21.40;;;;;;;1.97;100.00;100502.48;109210;1255;74012;-53
2024/03/02 06:13:10;;;;;;;32.30;20.30;;;;;;;2.03;100.00;100496.98;109052;1256;67593;-53
2024/03/02 06:15:37;;;;;;;29.90;18.60;;;;;;;2.07;100.00;100496.63;106907;1254;72369;-52
2024/03/02 06:18:06;;;;;;;30.80;18.80;;;;;;;2.13;100.00;100499.97;106080;1253;62218;-53
2024/03/02 06:20:33;;;;;;;27.70;20.10;;;;;;;2.18;100.00;100493.41;106412;1254;61691;-51
2024/03/02 06:23:04;;;;;;;31.80;19.90;;;;;;;2.22;100.00;100492.33;106132;1259;72565;-50
2024/03/02 06:25:30;;;;;;;34.30;20.20;;;;;;;2.27;100.00;100490.73;106316;1264;65918;-53
2024/03/02 06:27:57;;;;;;;30.00;18.50;;;;;;;2.30;100.00;100491.42;106117;1259;60807;-54
2024/03/02 06:30:23;;;;;;;31.40;19.90;;;;;;;2.34;100.00;100494.42;106144;1257;61320;-53
2024/03/02 06:32:50;;;;;;;32.50;20.20;;;;;;;2.38;100.00;100498.31;106732;1263;61321;-54
2024/03/02 06:35:16;;;;;;;29.40;19.40;;;;;;;2.41;100.00;100489.96;106156;1261;73863;-53
2024/03/02 06:37:43;;;;;;;36.60;19.20;;;;;;;2.43;100.00;100487.48;106217;1253;66877;-54
2024/03/02 06:40:10;;;;;;;42.20;19.30;;;;;;;2.44;100.00;100480.76;106196;1253;60415;-54
2024/03/02 06:42:36;;;;;;;31.60;19.80;;;;;;;2.47;100.00;100476.84;105940;1270;60442;-54
2024/03/02 06:45:03;;;;;;;34.10;19.50;;;;;;;2.50;100.00;100481.25;106209;1255;60340;-55
2024/03/02 06:47:30;;;;;;;34.60;18.80;;;;;;;2.53;100.00;100477.17;106131;1254;73890;-55
2024/03/02 06:49:58;;;;;;;28.00;17.10;;;;;;;2.57;100.00;100472.73;106192;1259;66827;-55
2024/03/02 06:52:24;;;;;;;31.80;17.20;;;;;;;2.63;100.00;100472.16;106257;1257;72076;-56
2024/03/02 06:54:51;;;;;;;24.60;17.00;;;;;;;2.70;100.00;100470.89;106159;1258;61240;-53
2024/03/02 06:57:19;;;;;;;28.70;16.40;;;;;;;2.79;100.00;100472.78;106419;1257;60851;-54
2024/03/02 06:59:47;;;;;;;31.00;18.40;;;;;;;2.87;100.00;100469.89;106387;1253;72618;-54
2024/03/02 07:02:13;;;;;;;27.60;16.30;;;;;;;2.96;100.00;100468.26;106314;1259;67177;-55
2024/03/02 07:04:40;;;;;;;33.20;17.40;;;;;;;3.02;100.00;100467.87;106399;1267;72571;-53
2024/03/02 07:07:06;;;;;;;32.20;19.40;;;;;;;3.07;100.00;100466.23;106207;1254;60405;-54
2024/03/02 07:09:33;;;;;;;29.50;18.50;;;;;;;3.10;100.00;100462.67;106460;1253;60795;-54
2024/03/02 07:12:00;;;;;;;24.00;18.60;;;;;;;3.16;100.00;100464.40;106139;1253;73859;-55
2024/03/02 07:14:55;;;;;;;27.90;18.80;;;;;;;3.21;100.00;100461.36;106223;1273;67276;-54
2024/03/02 07:17:13;;;;;;;32.00;19.10;;;;;;;3.28;100.00;100459.89;106065;1266;72731;-55
2024/03/02 07:19:39;;;;;;;30.10;18.30;;;;;;;3.33;100.00;100459.84;106755;1258;60319;-55
2024/03/02 07:22:08;;;;;;;27.80;17.80;;;;;;;3.37;100.00;100455.91;106249;1253;60830;-54
2024/03/02 07:24:43;;;;;;;30.00;18.00;;;;;;;3.42;100.00;100455.67;106357;1257;74419;-55
2024/03/02 07:27:12;;;;;;;27.00;18.50;;;;;;;3.48;100.00;100455.30;107444;1256;65836;-58
2024/03/02 07:29:39;;;;;;;25.10;15.80;;;;;;;3.55;100.00;100455.23;108628;1257;72584;-57
2024/03/02 07:32:07;;;;;;;26.00;17.60;;;;;;;3.63;100.00;100453.39;106194;1260;60545;-58
2024/03/02 07:34:33;;;;;;;25.00;14.90;;;;;;;3.71;100.00;100451.35;106238;1254;60761;-58
2024/03/02 07:37:00;;;;;;;25.90;16.40;;;;;;;3.81;100.00;100447.70;106249;1257;74273;-56
2024/03/02 07:39:27;;;;;;;27.00;16.70;;;;;;;3.90;100.00;100445.31;106978;1256;67650;-55
2024/03/02 07:41:53;;;;;;;29.90;18.20;;;;;;;3.95;100.00;100441.17;106195;1257;73160;-55
2024/03/02 07:44:20;;;;;;;29.50;17.00;;;;;;;3.88;100.00;100441.08;106257;1262;60562;-53
2024/03/02 07:46:47;;;;;;;22.80;15.90;;;;;;;3.82;100.00;100443.63;106252;1267;61411;-54
2024/03/02 07:49:14;;;;;;;27.10;15.50;;;;;;;3.84;100.00;100444.81;106366;1257;74912;-55
2024/03/02 07:51:40;;;;;;;30.00;17.80;;;;;;;3.91;100.00;100444.04;107554;1256;67541;-58
2024/03/02 07:54:07;;;;;;;24.10;16.40;;;;;;;3.97;100.00;100438.31;106306;1259;61016;-53
2024/03/02 07:56:34;;;;;;;27.50;15.70;;;;;;;4.05;100.00;100442.66;106401;1268;61153;-54
2024/03/02 07:59:04;;;;;;;25.70;15.10;;;;;;;4.15;100.00;100445.91;106567;1260;61378;-53
2024/03/02 08:01:31;;;;;;;23.60;14.00;;;;;;;4.26;100.00;100443.13;106690;1256;73939;-56
2024/03/02 08:04:01;;;;;;;19.20;12.70;;;;;;;4.38;100.00;100438.20;106467;1257;67732;-54
2024/03/02 08:06:28;;;;;;;24.80;14.20;;;;;;;4.50;100.00;100435.36;107005;1254;72919;-55
2024/03/02 08:08:58;;;;;;;25.10;15.10;;;;;;;4.64;100.00;100438.57;106243;1259;60481;-54
2024/03/02 08:11:24;;;;;;;23.10;13.70;;;;;;;4.77;100.00;100439.45;106307;1256;60352;-56
2024/03/02 08:13:52;;;;;;;21.50;13.20;;;;;;;4.88;100.00;100436.81;106597;1258;74482;-54
2024/03/02 08:16:22;;;;;;;20.00;12.10;;;;;;;4.98;100.00;100431.86;106257;1255;67449;-54
2024/03/02 08:18:49;;;;;;;16.70;10.40;;;;;;;5.05;100.00;100432.81;106256;1257;72666;-55
2024/03/02 08:21:16;;;;;;;24.40;14.20;;;;;;;5.11;100.00;100432.91;107043;1260;60574;-57
2024/03/02 08:23:42;;;;;;;21.10;13.60;;;;;;;5.16;100.00;100435.14;106046;1262;60527;-56
2024/03/02 08:26:11;;;;;;;23.80;15.20;;;;;;;5.22;100.00;100437.17;108924;1253;74346;-58
2024/03/02 08:28:38;;;;;;;18.30;13.50;;;;;;;5.29;100.00;100436.00;107721;1257;68794;-56
2024/03/02 08:31:05;;;;;;;17.60;12.00;;;;;;;5.37;100.00;100439.79;108359;1255;72673;-56
2024/03/02 08:33:31;;;;;;;18.30;12.50;;;;;;;5.42;100.00;100440.61;106332;1257;60377;-56
2024/03/02 08:36:00;;;;;;;18.90;11.90;;;;;;;5.45;100.00;100438.76;108863;1254;59418;-53
2024/03/02 08:38:27;;;;;;;20.80;14.00;;;;;;;5.50;100.00;100437.09;106035;1260;73627;-57
2024/03/02 08:40:53;;;;;;;17.70;12.50;;;;;;;5.56;100.00;100437.33;106164;1257;66246;-57
2024/03/02 08:43:20;;;;;;;19.30;12.50;;;;;;;5.59;100.00;100428.92;106211;1254;60558;-53
2024/03/02 08:45:47;;;;;;;20.20;11.60;;;;;;;5.59;100.00;100428.91;106109;1254;61324;-54
2024/03/02 08:48:13;;;;;;;22.90;12.80;;;;;;;5.59;100.00;100431.95;108660;1256;60438;-55
2024/03/02 08:50:40;;;;;;;20.00;11.30;;;;;;;5.61;100.00;100434.05;109210;1253;73636;-56
2024/03/02 08:53:07;;;;;;;17.00;11.30;;;;;;;5.65;100.00;100428.98;109134;1254;67190;-55
2024/03/02 08:55:33;;;;;;;18.20;12.20;;;;;;;5.72;100.00;100430.11;106595;1257;71916;-54
2024/03/02 08:58:00;;;;;;;22.20;10.90;;;;;;;5.80;100.00;100431.22;106115;1257;61352;-55
2024/03/02 09:00:26;;;;;;;12.40;8.60;;;;;;;5.86;100.00;100423.61;108681;1254;60646;-56
2024/03/02 09:02:53;;;;;;;16.80;10.90;;;;;;;5.93;100.00;100422.10;107227;1257;73661;-54
2024/03/02 09:05:20;;;;;;;12.50;8.90;;;;;;;6.01;100.00;100422.48;109100;1253;69387;-55
2024/03/02 09:07:46;;;;;;;14.40;10.90;;;;;;;6.10;100.00;100421.05;106107;1254;61203;-55
2024/03/02 09:10:13;;;;;;;17.20;12.50;;;;;;;6.16;100.00;100416.31;106179;1254;60572;-54
2024/03/02 09:12:39;;;;;;;18.60;11.90;;;;;;;6.19;100.00;100414.13;106182;1260;61198;-55
2024/03/02 09:15:07;;;;;;;17.30;12.70;;;;;;;6.25;100.00;100417.55;107419;1255;73815;-55
2024/03/02 09:17:33;;;;;;;19.90;13.00;;;;;;;6.31;100.00;100415.81;106560;1254;66921;-56
2024/03/02 09:20:00;;;;;;;19.10;12.70;;;;;;;6.33;100.00;100417.74;106560;1256;72567;-56
2024/03/02 09:22:27;;;;;;;20.30;12.40;;;;;;;6.37;100.00;100416.41;109163;1254;59375;-56
2024/03/02 09:24:53;;;;;;;15.20;12.10;;;;;;;6.40;100.00;100415.80;107003;1254;60523;-56
2024/03/02 09:27:20;;;;;;;17.70;12.30;;;;;;;6.41;100.00;100413.27;106099;1257;73893;-57
2024/03/02 09:29:47;;;;;;;17.40;12.50;;;;;;;6.46;100.00;100414.08;106744;1257;67147;-56
2024/03/02 09:32:14;;;;;;;21.70;13.70;;;;;;;6.48;100.00;100412.42;106059;1267;72389;-55
2024/03/02 09:34:41;;;;;;;16.40;11.60;;;;;;;6.50;100.00;100412.21;106105;1257;61790;-57
2024/03/02 09:37:08;;;;;;;15.70;11.40;;;;;;;6.50;100.00;100412.56;108035;1260;60697;-55
2024/03/02 09:39:35;;;;;;;16.00;10.50;;;;;;;6.50;100.00;100411.49;106569;1261;74466;-56
2024/03/02 09:42:03;;;;;;;17.00;11.80;;;;;;;6.53;100.00;100404.30;106086;1267;65912;-54
2024/03/02 09:44:30;;;;;;;16.40;12.60;;;;;;;6.56;100.00;100404.05;106362;1259;72721;-55
2024/03/02 09:46:56;;;;;;;17.40;13.10;;;;;;;6.60;100.00;100405.75;106086;1260;60487;-54
2024/03/02 09:49:23;;;;;;;22.70;14.30;;;;;;;6.66;100.00;100401.52;106087;1257;61258;-54
2024/03/02 09:51:50;;;;;;;21.40;13.70;;;;;;;6.68;100.00;100397.20;109083;1254;72530;-57
2024/03/02 09:54:17;;;;;;;21.30;14.40;;;;;;;6.71;100.00;100398.02;106400;1257;67736;-54
2024/03/02 09:56:50;;;;;;;18.50;12.90;;;;;;;6.74;100.00;100397.05;106428;1257;71279;-56
2024/03/02 09:59:19;;;;;;;15.80;11.80;;;;;;;6.79;100.00;100395.34;106378;1266;60416;-54
2024/03/02 10:02:12;;;;;;;18.80;11.40;;;;;;;6.85;100.00;100394.31;106209;1257;61029;-55
2024/03/02 10:04:38;;;;;;;16.90;12.40;;;;;;;6.90;100.00;100391.34;106015;1257;75674;-56
2024/03/02 10:07:18;;;;;;;17.80;11.50;;;;;;;6.95;100.00;100396.76;105965;1254;66976;-53
2024/03/02 10:09:46;;;;;;;13.20;10.50;;;;;;;7.00;100.00;100396.63;106060;1255;72611;-54
2024/03/02 10:12:15;;;;;;;16.90;12.20;;;;;;;7.04;100.00;100397.81;106315;1257;60478;-56
2024/03/02 10:14:42;;;;;;;15.20;10.70;;;;;;;7.04;100.00;100396.20;106353;1255;61648;-55
2024/03/02 10:17:10;;;;;;;14.70;11.60;;;;;;;6.99;100.00;100393.27;106120;1258;72427;-56
2024/03/02 10:19:37;;;;;;;14.60;11.50;;;;;;;6.97;100.00;100394.59;106468;1254;67236;-56
2024/03/02 10:22:05;;;;;;;15.40;11.10;;;;;;;6.96;100.00;100388.19;106202;1254;72738;-58
2024/03/02 10:24:39;;;;;;;15.60;9.20;;;;;;;6.95;100.00;100391.77;106325;1257;60409;-55
2024/03/02 10:27:16;;;;;;;11.70;8.90;;;;;;;6.98;100.00;100390.64;106089;1257;60079;-55
2024/03/02 10:29:45;;;;;;;13.90;10.10;;;;;;;7.04;100.00;100384.23;106151;1257;72629;-56
2024/03/02 10:32:12;;;;;;;12.80;9.60;;;;;;;7.08;100.00;100381.45;106159;1254;67510;-55
2024/03/02 10:34:43;;;;;;;12.00;9.10;;;;;;;7.10;100.00;100379.44;106194;1260;72685;-54
2024/03/02 10:37:10;;;;;;;13.10;9.30;;;;;;;7.15;100.00;100380.57;107812;1253;60782;-54
2024/03/02 10:39:39;;;;;;;11.40;9.30;;;;;;;7.23;100.00;100381.98;108129;1256;60559;-57
2024/03/02 10:42:06;;;;;;;11.00;9.30;;;;;;;7.29;100.00;100376.66;106197;1258;73198;-56
2024/03/02 10:44:33;;;;;;;10.20;7.70;;;;;;;7.34;100.00;100372.42;106278;1254;65901;-55
2024/03/02 10:47:01;;;;;;;11.50;8.20;;;;;;;7.38;100.00;100368.91;106085;1257;72688;-55
2024/03/02 10:49:28;;;;;;;9.30;7.20;;;;;;;7.44;100.00;100369.12;106619;1257;60315;-55
2024/03/02 10:51:55;;;;;;;12.90;7.60;;;;;;;7.49;100.00;100367.02;107786;1259;63539;-55
2024/03/02 10:54:26;;;;;;;8.80;6.60;;;;;;;7.54;100.00;100368.33;106111;1254;73661;-56
2024/03/02 10:56:54;;;;;;;10.40;7.70;;;;;;;7.60;100.00;100366.02;107810;1256;66547;-55
2024/03/02 10:59:33;;;;;;;11.20;7.20;;;;;;;7.66;100.00;100363.90;106614;1258;73051;-56
2024/03/02 11:02:00;;;;;;;10.00;7.60;;;;;;;7.69;100.00;100366.48;107211;1253;60683;-57
2024/03/02 11:04:32;;;;;;;13.10;6.70;;;;;;;7.73;100.00;100366.23;106054;1257;60563;-56
2024/03/02 11:07:06;;;;;;;8.10;5.70;;;;;;;7.73;100.00;100366.05;106949;1254;72639;-56
2024/03/02 11:09:37;;;;;;;10.20;7.00;;;;;;;7.72;100.00;100363.94;106200;1254;67608;-56